Time;durP1;ratioP1;P1;durP2;ratioP2;P2;SDS_P1;SDS_P2;PMS_P1;PMS_P2;Temp;Humidity;BMP_temperature;BMP_pressure;BME280_temperature;BME280_humidity;BME280_pressure;Samples;Min_cycle;Max_cycle;Signal;HPM_P1;HPM_P2
2021/10/20 00:00:42;;;;;;;4.81;2.00;;;;;;;11.44;85.88;99446.25;2314067;66;22044;-79
2021/10/20 00:03:45;;;;;;;2.30;1.81;;;;;;;11.53;85.89;99454.00;2318784;68;20167;-78
2021/10/20 00:06:48;;;;;;;3.39;2.04;;;;;;;11.66;85.15;99449.53;2317007;69;20235;-78
2021/10/20 00:09:50;;;;;;;2.05;1.69;;;;;;;11.75;84.83;99446.88;2319330;69;20208;-78
2021/10/20 00:12:53;;;;;;;2.10;1.90;;;;;;;11.92;84.07;99450.22;2318977;68;20196;-78
2021/10/20 00:15:56;;;;;;;1.85;1.75;;;;;;;12.03;83.40;99447.53;2317575;69;22772;-78
2021/10/20 00:18:59;;;;;;;2.13;1.95;;;;;;;12.25;82.40;99448.19;2317839;69;20187;-78
2021/10/20 00:22:02;;;;;;;1.90;1.73;;;;;;;12.30;81.95;99439.44;2318655;69;20216;-78
2021/10/20 00:25:06;;;;;;;4.38;1.99;;;;;;;12.29;81.93;99437.72;2317428;69;20237;-78
2021/10/20 00:28:09;;;;;;;2.44;1.75;;;;;;;12.39;81.56;99448.91;2320310;69;20455;-78
2021/10/20 00:31:12;;;;;;;2.26;1.96;;;;;;;12.49;80.86;99447.91;2319420;66;22198;-78
2021/10/20 00:34:15;;;;;;;2.53;2.24;;;;;;;12.54;80.54;99443.50;2318743;68;20203;-78
2021/10/20 00:37:17;;;;;;;1.95;1.76;;;;;;;12.46;80.75;99434.94;2319967;69;20212;-78
2021/10/20 00:40:20;;;;;;;7.40;2.10;;;;;;;12.42;81.18;99432.38;2320837;69;20248;-78
2021/10/20 00:43:24;;;;;;;4.88;2.01;;;;;;;12.43;81.36;99434.13;2320133;68;20173;-78
2021/10/20 00:46:29;;;;;;;1.76;1.61;;;;;;;12.44;81.64;99435.84;2318361;66;21283;-78
2021/10/20 00:49:32;;;;;;;2.11;1.88;;;;;;;12.42;81.66;99430.66;2314725;69;20932;-79
2021/10/20 00:52:35;;;;;;;4.39;2.39;;;;;;;12.45;81.62;99434.94;2319447;69;20172;-77
2021/10/20 00:55:38;;;;;;;2.64;2.06;;;;;;;12.44;81.65;99430.63;2318456;68;20179;-78
2021/10/20 00:58:41;;;;;;;2.01;1.76;;;;;;;12.41;81.61;99428.94;2320225;69;20172;-78
2021/10/20 01:01:44;;;;;;;2.76;2.21;;;;;;;12.33;81.64;99418.56;2316614;66;20536;-78
2021/10/20 01:04:49;;;;;;;2.51;2.09;;;;;;;12.27;81.80;99416.03;2320264;68;20791;-78
2021/10/20 01:07:52;;;;;;;2.25;2.06;;;;;;;12.16;82.15;99415.28;2315662;69;20139;-78
2021/10/20 01:10:55;;;;;;;3.42;2.50;;;;;;;12.05;82.39;99399.81;2319224;69;20139;-78
2021/10/20 01:13:58;;;;;;;4.81;1.81;;;;;;;11.97;82.85;99399.00;2317794;68;20178;-78
2021/10/20 01:17:03;;;;;;;3.01;2.17;;;;;;;11.92;83.26;99395.59;2313265;66;24856;-78
2021/10/20 01:20:07;;;;;;;4.25;2.00;;;;;;;11.89;83.56;99385.22;2319508;69;20578;-78
2021/10/20 01:23:10;;;;;;;2.46;2.21;;;;;;;11.87;83.80;99378.31;2319785;68;20179;-78
2021/10/20 01:26:16;;;;;;;3.24;2.25;;;;;;;11.81;84.05;99376.59;2320516;69;20179;-78
2021/10/20 01:29:20;;;;;;;2.54;2.34;;;;;;;11.83;84.39;99374.84;2319028;69;20532;-78
2021/10/20 01:32:22;;;;;;;2.36;2.21;;;;;;;11.87;84.75;99375.72;2318255;66;21848;-78
2021/10/20 01:35:25;;;;;;;2.94;2.26;;;;;;;11.94;84.90;99369.56;2320864;68;20156;-78
2021/10/20 01:38:28;;;;;;;2.79;2.59;;;;;;;11.99;84.62;99363.41;2321629;69;20924;-78
2021/10/20 01:41:33;;;;;;;2.38;2.17;;;;;;;11.98;84.78;99353.03;2320670;69;20172;-78
2021/10/20 01:44:36;;;;;;;3.14;2.06;;;;;;;12.01;84.80;99343.44;2321433;68;20156;-78
2021/10/20 01:47:39;;;;;;;6.41;2.59;;;;;;;12.02;84.78;99349.50;2320069;66;23320;-79
2021/10/20 01:50:41;;;;;;;2.61;2.38;;;;;;;12.08;84.91;99350.31;2320771;69;20252;-79
2021/10/20 01:53:44;;;;;;;3.10;2.63;;;;;;;12.12;84.88;99348.53;2321178;68;20596;-79
2021/10/20 01:56:47;;;;;;;3.49;2.35;;;;;;;12.08;84.66;99337.31;2320211;69;20194;-78
2021/10/20 01:59:50;;;;;;;7.01;2.99;;;;;;;12.05;84.52;99329.53;2319838;69;20624;-78
2021/10/20 02:02:52;;;;;;;3.21;2.46;;;;;;;12.12;85.06;99329.44;2318155;66;22265;-79
2021/10/20 02:05:55;;;;;;;2.97;2.78;;;;;;;12.09;84.89;99322.53;2321880;69;20865;-79
2021/10/20 02:08:58;;;;;;;3.92;2.64;;;;;;;12.06;85.03;99312.19;2320929;69;20159;-78
2021/10/20 02:12:01;;;;;;;3.17;2.88;;;;;;;12.07;84.94;99317.38;2322560;69;20174;-78
2021/10/20 02:15:04;;;;;;;2.91;2.65;;;;;;;12.01;84.85;99312.22;2319780;69;20189;-78
2021/10/20 02:18:07;;;;;;;3.79;2.38;;;;;;;12.03;85.41;99307.00;2321022;66;22154;-78
2021/10/20 02:21:09;;;;;;;3.00;2.46;;;;;;;12.05;85.35;99300.91;2321327;69;20155;-78
2021/10/20 02:24:12;;;;;;;3.11;2.65;;;;;;;12.03;85.21;99291.41;2322032;69;20997;-78
2021/10/20 02:27:15;;;;;;;4.26;2.94;;;;;;;12.00;85.47;99284.47;2321062;69;20152;-78
2021/10/20 02:30:17;;;;;;;4.59;2.56;;;;;;;12.01;85.63;99293.13;2319731;69;20224;-78
2021/10/20 02:33:20;;;;;;;4.11;2.97;;;;;;;11.98;85.70;99285.38;2322156;68;20912;-78
2021/10/20 02:36:23;;;;;;;2.97;2.75;;;;;;;11.96;85.74;99284.53;2321738;69;20177;-78
2021/10/20 02:39:26;;;;;;;2.67;2.47;;;;;;;11.97;85.96;99281.03;2322028;69;20518;-78
2021/10/20 02:42:29;;;;;;;2.72;2.50;;;;;;;11.91;85.90;99284.59;2322111;69;20168;-79
2021/10/20 02:45:32;;;;;;;4.31;3.08;;;;;;;11.92;86.28;99269.84;2315135;66;22278;-78
2021/10/20 02:48:35;;;;;;;4.59;3.24;;;;;;;11.94;86.58;99274.13;2321449;69;20279;-79
2021/10/20 02:51:38;;;;;;;3.17;2.69;;;;;;;11.98;86.70;99261.94;2321023;69;20210;-78
2021/10/20 02:54:40;;;;;;;3.63;2.84;;;;;;;11.96;86.62;99272.38;2319839;68;20175;-78
2021/10/20 02:57:43;;;;;;;5.39;3.59;;;;;;;11.94;86.52;99263.72;2321602;69;20181;-78
2021/10/20 03:00:45;;;;;;;3.21;2.91;;;;;;;11.90;86.51;99264.66;2318405;66;26667;-78
2021/10/20 03:03:48;;;;;;;3.29;2.95;;;;;;;11.89;86.54;99262.94;2320500;69;20144;-78
2021/10/20 03:06:51;;;;;;;4.61;3.28;;;;;;;11.88;86.80;99262.94;2318900;69;20140;-78
2021/10/20 03:09:54;;;;;;;3.55;3.30;;;;;;;11.91;87.21;99255.09;2320916;69;20228;-78
2021/10/20 03:12:56;;;;;;;3.91;3.28;;;;;;;11.89;87.31;99252.53;2319034;68;20159;-79
2021/10/20 03:15:59;;;;;;;3.04;2.84;;;;;;;11.91;87.57;99250.75;2319791;66;20946;-78
2021/10/20 03:19:02;;;;;;;4.41;3.10;;;;;;;11.91;87.37;99252.50;2320244;69;20169;-79
2021/10/20 03:22:07;;;;;;;3.65;3.30;;;;;;;11.90;87.39;99246.44;2319690;69;20151;-78
2021/10/20 03:25:11;;;;;;;3.61;3.05;;;;;;;11.89;87.37;99244.72;2316026;69;20176;-79
2021/10/20 03:28:14;;;;;;;3.33;2.96;;;;;;;11.86;87.36;99246.50;2319401;69;20139;-79
2021/10/20 03:31:17;;;;;;;3.72;3.44;;;;;;;11.83;87.45;99255.19;2318591;66;36332;-78
2021/10/20 03:34:20;;;;;;;4.34;3.09;;;;;;;11.84;87.89;99254.28;2321637;68;20195;-78
2021/10/20 03:37:22;;;;;;;4.68;3.38;;;;;;;11.86;87.99;99246.50;2321272;69;20650;-79
2021/10/20 03:40:25;;;;;;;3.39;3.15;;;;;;;11.82;87.67;99243.06;2321048;69;20224;-79
2021/10/20 03:43:27;;;;;;;4.00;3.50;;;;;;;11.80;87.78;99244.81;2319949;68;20171;-79
2021/10/20 03:46:30;;;;;;;6.60;3.46;;;;;;;11.77;87.90;99235.28;2320001;66;21896;-79
2021/10/20 03:49:33;;;;;;;5.76;3.35;;;;;;;11.79;88.38;99246.56;2322425;69;20140;-79
2021/10/20 03:52:35;;;;;;;5.44;3.44;;;;;;;11.78;88.30;99242.22;2322279;69;20638;-79
2021/10/20 03:55:38;;;;;;;3.51;3.04;;;;;;;11.80;88.49;99250.00;2321067;69;20652;-79
2021/10/20 03:58:41;;;;;;;5.25;3.45;;;;;;;11.80;88.28;99247.41;2321110;69;20148;-79
2021/10/20 04:01:44;;;;;;;5.84;3.53;;;;;;;11.77;88.50;99250.03;2317489;66;23799;-79
2021/10/20 04:04:47;;;;;;;6.47;4.00;;;;;;;11.83;89.13;99254.31;2319880;68;20551;-79
2021/10/20 04:07:51;;;;;;;3.45;3.19;;;;;;;11.87;89.51;99264.69;2321740;69;20169;-79
2021/10/20 04:10:53;;;;;;;4.13;3.16;;;;;;;11.91;89.49;99257.72;2320439;69;20144;-79
2021/10/20 04:13:56;;;;;;;4.36;3.64;;;;;;;11.89;89.12;99251.66;2321841;68;20144;-79
2021/10/20 04:16:59;;;;;;;3.89;3.36;;;;;;;11.83;88.95;99249.13;2320517;66;22823;-78
2021/10/20 04:20:02;;;;;;;4.14;3.50;;;;;;;11.82;88.99;99252.59;2320696;69;20216;-79
2021/10/20 04:23:04;;;;;;;3.67;3.33;;;;;;;11.75;88.96;99242.25;2322820;68;20263;-78
2021/10/20 04:26:07;;;;;;;4.13;3.61;;;;;;;11.78;89.28;99246.53;2321474;69;20160;-79
2021/10/20 04:29:10;;;;;;;3.90;3.60;;;;;;;11.80;89.45;99250.88;2321324;69;20166;-79
2021/10/20 04:32:12;;;;;;;4.24;3.74;;;;;;;11.85;89.82;99242.16;2320430;66;22007;-79
2021/10/20 04:35:17;;;;;;;4.15;3.74;;;;;;;11.89;89.95;99238.66;2320048;68;20258;-79
2021/10/20 04:38:20;;;;;;;5.71;3.95;;;;;;;11.88;89.85;99223.94;2321495;69;20219;-79
2021/10/20 04:41:23;;;;;;;4.32;3.92;;;;;;;11.89;89.95;99226.50;2322315;69;20353;-79
2021/10/20 04:44:26;;;;;;;3.79;3.42;;;;;;;11.87;89.66;99217.88;2320441;68;20187;-79
2021/10/20 04:47:29;;;;;;;7.19;4.46;;;;;;;11.85;89.48;99210.94;2319710;66;21658;-79
2021/10/20 04:50:31;;;;;;;5.81;4.01;;;;;;;11.85;89.68;99201.41;2320560;69;20504;-79
2021/10/20 04:53:34;;;;;;;5.86;4.22;;;;;;;11.91;90.23;99196.13;2323052;68;20175;-79
2021/10/20 04:56:37;;;;;;;5.03;3.70;;;;;;;11.94;90.24;99187.41;2321735;69;20220;-79
2021/10/20 04:59:40;;;;;;;6.16;3.81;;;;;;;11.93;89.93;99170.94;2322134;69;20151;-79
2021/10/20 05:02:42;;;;;;;4.28;3.86;;;;;;;11.97;90.14;99176.97;2316965;66;23368;-79
2021/10/20 05:05:45;;;;;;;4.24;3.84;;;;;;;11.97;89.99;99163.94;2321118;68;20167;-79
2021/10/20 05:08:48;;;;;;;4.97;4.15;;;;;;;11.97;89.93;99163.94;2320833;69;20164;-79
2021/10/20 05:11:51;;;;;;;4.21;3.83;;;;;;;11.95;89.82;99165.72;2319832;69;20220;-79
2021/10/20 05:14:54;;;;;;;4.49;3.99;;;;;;;11.92;89.96;99158.81;2321484;68;20237;-79
2021/10/20 05:17:56;;;;;;;5.05;4.65;;;;;;;11.99;90.83;99165.66;2319784;66;20835;-79
2021/10/20 05:20:59;;;;;;;4.74;4.34;;;;;;;12.09;91.26;99162.03;2322035;69;20148;-79
2021/10/20 05:24:01;;;;;;;6.54;4.99;;;;;;;12.21;91.38;99167.94;2322746;69;20587;-79
2021/10/20 05:27:04;;;;;;;5.29;4.63;;;;;;;12.31;91.34;99165.19;2320365;69;20163;-79
2021/10/20 05:30:08;;;;;;;5.20;4.34;;;;;;;12.36;91.00;99152.09;2320031;69;20660;-79
2021/10/20 05:33:10;;;;;;;5.40;4.47;;;;;;;12.44;90.99;99154.59;2320506;66;24952;-79
2021/10/20 05:36:13;;;;;;;6.06;4.86;;;;;;;12.52;90.96;99145.75;2321021;69;20148;-79
2021/10/20 05:39:15;;;;;;;5.04;4.38;;;;;;;12.62;90.80;99141.28;2321267;69;20156;-79
2021/10/20 05:42:19;;;;;;;6.38;4.39;;;;;;;12.68;90.45;99142.03;2321254;69;20183;-79
2021/10/20 05:45:21;;;;;;;6.35;4.72;;;;;;;12.74;90.21;99138.44;2317681;66;23332;-80
2021/10/20 05:48:24;;;;;;;5.54;4.21;;;;;;;12.82;89.99;99131.38;2320899;69;20211;-79
2021/10/20 05:51:27;;;;;;;5.21;4.71;;;;;;;12.83;89.50;99108.78;2320583;69;20147;-78
2021/10/20 05:54:30;;;;;;;4.81;4.40;;;;;;;12.89;89.54;99111.25;2320461;68;20192;-79
2021/10/20 05:57:37;;;;;;;7.39;4.31;;;;;;;12.89;89.20;99114.72;2321675;68;20171;-79
2021/10/20 06:00:41;;;;;;;7.05;4.79;;;;;;;12.91;89.13;99117.31;2317275;66;28446;-79
2021/10/20 06:03:44;;;;;;;5.15;4.09;;;;;;;12.92;88.84;99114.66;2320249;68;20255;-78
2021/10/20 06:06:46;;;;;;;4.31;3.90;;;;;;;12.89;88.50;99103.44;2322052;69;20151;-79
2021/10/20 06:09:49;;;;;;;5.90;4.65;;;;;;;12.86;88.22;99090.47;2321676;69;20163;-79
2021/10/20 06:12:52;;;;;;;4.93;4.44;;;;;;;12.86;88.76;99085.25;2321908;69;20151;-79
2021/10/20 06:15:54;;;;;;;5.90;4.89;;;;;;;12.85;89.00;99084.41;2319051;66;29770;-79
2021/10/20 06:18:57;;;;;;;5.55;4.71;;;;;;;12.85;89.14;99073.97;2306311;69;20739;-80
2021/10/20 06:22:02;;;;;;;4.65;4.25;;;;;;;12.89;89.24;99083.44;2320355;69;20152;-79
2021/10/20 06:25:16;;;;;;;4.54;4.24;;;;;;;12.95;89.51;99085.09;2305019;69;20176;-79
2021/10/20 06:28:34;;;;;;;5.45;4.64;;;;;;;13.00;89.54;99084.13;2316053;69;20250;-79
2021/10/20 06:31:38;;;;;;;6.60;4.65;;;;;;;13.09;89.49;99082.22;2309247;69;20164;-79
2021/10/20 06:34:45;;;;;;;7.84;4.59;;;;;;;13.16;89.36;99081.22;2310918;69;20227;-80
2021/10/20 06:38:22;;;;;;;7.04;4.66;;;;;;;13.21;89.15;99082.00;2324754;68;20224;-80
2021/10/20 06:41:46;;;;;;;5.15;4.65;;;;;;;13.32;89.07;99087.88;2302663;69;20206;-80
2021/10/20 06:44:54;;;;;;;5.45;4.68;;;;;;;13.41;88.79;99099.84;2297683;69;20328;-79
2021/10/20 06:48:32;;;;;;;6.13;4.14;;;;;;;13.47;88.61;99105.84;2298294;67;27576;-80
2021/10/20 06:51:59;;;;;;;5.07;4.39;;;;;;;13.55;88.45;99097.84;2297767;69;20179;-79
2021/10/20 06:55:23;;;;;;;5.99;4.26;;;;;;;13.59;88.31;99095.13;2299483;69;20228;-80
2021/10/20 06:58:43;;;;;;;6.99;4.05;;;;;;;13.65;88.23;99099.38;2298773;69;20267;-79
2021/10/20 07:02:35;;;;;;;4.54;4.11;;;;;;;13.73;88.05;99088.75;2294158;69;20176;-80
2021/10/20 07:07:10;;;;;;;4.25;3.94;;;;;;;13.82;87.85;99096.34;2272672;69;20304;-79
2021/10/20 07:11:01;;;;;;;4.64;3.44;;;;;;;13.90;87.60;99095.31;2297328;69;20256;-80
2021/10/20 07:14:56;;;;;;;5.25;3.70;;;;;;;13.98;87.49;99102.09;2297899;69;20158;-80
2021/10/20 07:18:50;;;;;;;4.69;3.83;;;;;;;14.00;87.35;99090.72;2295628;69;20702;-80
2021/10/20 07:26:42;;;;;;;;;;;;;;;14.12;87.29;99097.41;2324990;68;20167;-81
2021/10/20 07:31:29;;;;;;;5.31;3.80;;;;;;;14.18;87.29;99077.25;2285605;69;2119246;-78
2021/10/20 07:43:20;;;;;;;4.25;3.47;;;;;;;14.49;86.45;99032.09;2322976;68;20172;-79
2021/10/20 07:47:35;;;;;;;3.64;3.06;;;;;;;14.58;86.23;99033.63;2281177;69;2961457;-79
2021/10/20 07:51:20;;;;;;;4.32;3.75;;;;;;;14.61;85.85;99046.63;2320118;69;20223;-78
2021/10/20 07:54:28;;;;;;;5.64;3.50;;;;;;;14.64;85.27;99044.78;2316405;69;20185;-78
2021/10/20 07:57:47;;;;;;;4.04;3.56;;;;;;;14.70;85.14;99036.75;2317217;69;20239;-78
2021/10/20 08:00:55;;;;;;;3.96;3.10;;;;;;;14.76;85.12;99036.63;2306824;68;999441;-78
2021/10/20 08:04:24;;;;;;;6.10;3.42;;;;;;;14.86;85.06;99031.97;2320998;68;20266;-79
2021/10/20 08:07:27;;;;;;;5.10;3.21;;;;;;;15.01;84.66;99018.47;2324335;69;20211;-79
2021/10/20 08:10:30;;;;;;;4.21;3.15;;;;;;;15.16;84.29;99018.97;2330526;68;20143;-80
2021/10/20 08:13:33;;;;;;;3.81;2.81;;;;;;;15.23;83.98;99012.63;2332722;68;20182;-80
2021/10/20 08:16:36;;;;;;;5.59;3.25;;;;;;;15.27;83.39;99011.66;2331618;66;26077;-80
2021/10/20 08:19:39;;;;;;;3.44;3.16;;;;;;;15.43;83.48;99010.28;2329138;68;20148;-80
2021/10/20 08:22:43;;;;;;;3.65;3.35;;;;;;;15.60;81.93;99015.88;2332076;69;20165;-80
2021/10/20 08:25:46;;;;;;;7.01;3.15;;;;;;;15.65;81.68;99005.31;2329886;68;20259;-80
2021/10/20 08:28:49;;;;;;;5.34;3.35;;;;;;;15.63;81.36;99013.19;2337234;69;20256;-80
2021/10/20 08:31:52;;;;;;;4.43;3.14;;;;;;;15.63;81.31;99017.59;2333186;69;20165;-81
2021/10/20 08:34:54;;;;;;;3.29;2.78;;;;;;;15.66;81.71;99005.25;2330895;68;20155;-80
2021/10/20 08:38:01;;;;;;;5.54;3.11;;;;;;;15.75;81.93;99005.84;2323036;69;20147;-80
2021/10/20 08:41:06;;;;;;;3.19;2.74;;;;;;;15.82;81.55;99008.25;2315464;68;20410;-78
2021/10/20 08:44:09;;;;;;;4.50;2.89;;;;;;;15.92;81.48;99007.03;2322109;68;20151;-79
2021/10/20 08:47:12;;;;;;;4.28;2.86;;;;;;;16.00;80.97;99020.75;2322434;66;23409;-79
2021/10/20 08:50:22;;;;;;;3.15;2.89;;;;;;;16.14;80.58;98999.31;2323409;69;20151;-80
2021/10/20 08:53:25;;;;;;;3.56;2.60;;;;;;;16.32;79.91;98995.22;2324685;68;20683;-80
2021/10/20 08:56:28;;;;;;;4.39;3.01;;;;;;;16.55;79.66;98999.69;2323928;69;20147;-80
2021/10/20 08:59:32;;;;;;;4.44;3.06;;;;;;;16.72;78.53;98980.78;2323011;69;20216;-79
2021/10/20 09:02:38;;;;;;;3.58;2.40;;;;;;;16.79;77.41;98983.13;2321261;66;31111;-80
2021/10/20 09:05:44;;;;;;;2.80;2.60;;;;;;;16.78;76.89;98988.41;2325411;68;20152;-79
2021/10/20 09:08:48;;;;;;;2.71;2.51;;;;;;;16.78;77.05;98993.66;2325034;69;20263;-79
2021/10/20 09:11:50;;;;;;;5.40;2.55;;;;;;;16.75;77.32;98999.88;2324519;69;20152;-80
2021/10/20 09:14:59;;;;;;;4.11;2.31;;;;;;;16.66;77.26;98989.66;2320850;69;20156;-78
2021/10/20 09:18:15;;;;;;;4.56;2.31;;;;;;;16.58;77.32;98997.81;2320179;66;21941;-79
2021/10/20 09:21:18;;;;;;;3.20;2.61;;;;;;;16.48;77.59;98983.31;2314696;69;20175;-79
2021/10/20 09:24:22;;;;;;;3.49;2.81;;;;;;;16.46;78.06;98977.28;2321925;68;20160;-78
2021/10/20 09:27:27;;;;;;;5.20;3.31;;;;;;;16.48;78.58;98971.97;2318688;69;20185;-77
2021/10/20 09:30:30;;;;;;;2.78;2.21;;;;;;;16.51;78.21;98967.47;2315794;66;27997;-77
2021/10/20 09:33:36;;;;;;;2.50;2.30;;;;;;;16.50;77.98;98978.00;2318393;68;20168;-77
2021/10/20 09:36:39;;;;;;;3.99;2.44;;;;;;;16.53;78.18;98968.31;2318379;69;20217;-77
2021/10/20 09:39:43;;;;;;;3.96;2.35;;;;;;;16.64;78.43;98975.75;2319271;68;20168;-77
2021/10/20 09:42:48;;;;;;;3.72;2.09;;;;;;;16.73;78.18;98972.00;2319757;69;20181;-77
2021/10/20 09:45:51;;;;;;;3.67;2.38;;;;;;;16.77;78.02;98966.59;2312133;66;21668;-77
2021/10/20 09:48:54;;;;;;;5.82;2.50;;;;;;;16.79;77.75;98970.00;2319017;69;20164;-76
2021/10/20 09:51:58;;;;;;;4.68;2.59;;;;;;;16.74;77.55;98966.72;2319780;69;20140;-77
2021/10/20 09:55:00;;;;;;;3.78;2.41;;;;;;;16.69;77.69;98952.88;2317739;68;20179;-77
2021/10/20 09:58:11;;;;;;;4.13;2.31;;;;;;;16.66;77.79;98939.00;2318602;69;20144;-78
2021/10/20 10:01:18;;;;;;;4.72;2.21;;;;;;;16.62;77.81;98933.88;2316072;66;26035;-78
2021/10/20 10:04:21;;;;;;;3.26;2.06;;;;;;;16.58;77.84;98931.44;2320427;68;20212;-77
2021/10/20 10:07:24;;;;;;;4.30;2.15;;;;;;;16.56;77.94;98931.50;2319754;69;20177;-77
2021/10/20 10:10:27;;;;;;;6.28;2.38;;;;;;;16.59;78.32;98920.03;2318823;69;20193;-77
2021/10/20 10:13:35;;;;;;;4.85;2.26;;;;;;;16.62;78.13;98906.81;2319513;68;20728;-77
2021/10/20 10:16:41;;;;;;;2.68;2.26;;;;;;;16.63;77.77;98919.84;2316995;66;21417;-77
2021/10/20 10:19:44;;;;;;;4.04;2.66;;;;;;;16.65;77.97;98906.69;2320093;69;20247;-77
2021/10/20 10:23:02;;;;;;;2.56;1.98;;;;;;;16.66;78.09;98902.31;2319726;69;20169;-77
2021/10/20 10:26:06;;;;;;;2.51;2.20;;;;;;;16.66;78.01;98894.44;2319010;69;20168;-77
2021/10/20 10:29:12;;;;;;;4.07;2.14;;;;;;;16.63;77.91;98898.03;2319132;69;20540;-77
2021/10/20 10:32:18;;;;;;;2.88;2.13;;;;;;;16.64;77.86;98894.50;2318341;66;21966;-77
2021/10/20 10:35:30;;;;;;;4.76;2.19;;;;;;;16.67;77.85;98902.28;2318004;68;20671;-78
2021/10/20 10:38:58;;;;;;;2.72;2.09;;;;;;;16.68;77.86;98901.38;2320358;69;20201;-78
2021/10/20 10:42:04;;;;;;;4.79;2.14;;;;;;;16.69;77.76;98903.06;2318333;69;20195;-77
2021/10/20 10:45:12;;;;;;;2.36;2.06;;;;;;;16.70;77.80;98906.59;2318613;68;20173;-78
2021/10/20 10:48:15;;;;;;;4.56;2.10;;;;;;;16.66;77.87;98900.53;2319680;67;20819;-78
2021/10/20 10:51:19;;;;;;;2.01;1.83;;;;;;;16.63;77.90;98892.78;2320076;69;20151;-78
2021/10/20 10:54:34;;;;;;;2.34;2.00;;;;;;;16.65;78.07;98890.97;2318805;68;20179;-78
2021/10/20 10:57:57;;;;;;;2.30;2.10;;;;;;;16.69;78.19;98882.09;2318730;69;20135;-77
2021/10/20 11:01:00;;;;;;;3.09;1.71;;;;;;;16.78;78.27;98879.16;2315335;66;53993;-78
2021/10/20 11:04:35;;;;;;;2.97;2.10;;;;;;;16.85;77.82;98874.53;2315757;68;20239;-77
2021/10/20 11:07:38;;;;;;;3.33;2.22;;;;;;;16.88;77.19;98879.66;2312702;69;20178;-78
2021/10/20 11:10:43;;;;;;;7.41;2.46;;;;;;;16.91;77.15;98879.56;2311882;69;20205;-77
2021/10/20 11:13:46;;;;;;;2.03;1.77;;;;;;;16.91;76.68;98872.53;2311167;69;20300;-77
2021/10/20 11:17:09;;;;;;;2.85;1.39;;;;;;;17.00;76.95;98866.06;2310184;66;23385;-77
2021/10/20 11:20:17;;;;;;;4.56;1.86;;;;;;;17.17;77.05;98847.03;2312077;69;20176;-78
2021/10/20 11:23:20;;;;;;;4.43;2.11;;;;;;;17.41;76.06;98843.41;2311747;69;20535;-77
2021/10/20 11:26:22;;;;;;;2.08;1.66;;;;;;;17.53;74.37;98844.69;2307757;69;20169;-77
2021/10/20 11:29:25;;;;;;;3.42;1.86;;;;;;;17.58;74.22;98840.09;2310992;69;20156;-77
2021/10/20 11:32:27;;;;;;;2.01;1.81;;;;;;;17.72;73.98;98831.69;2308640;66;21259;-77
2021/10/20 11:35:31;;;;;;;2.14;1.60;;;;;;;17.85;73.63;98837.28;2310978;69;20156;-77
2021/10/20 11:38:35;;;;;;;4.19;1.90;;;;;;;17.94;72.98;98831.59;2311550;69;20172;-78
2021/10/20 11:41:54;;;;;;;3.38;1.61;;;;;;;17.96;72.85;98827.19;2311939;69;20168;-78
2021/10/20 11:45:03;;;;;;;2.38;1.80;;;;;;;18.08;72.76;98819.59;2311773;69;20164;-77
2021/10/20 11:48:06;;;;;;;4.11;1.45;;;;;;;18.16;72.35;98816.63;2311012;67;73917;-78
2021/10/20 11:51:09;;;;;;;3.06;1.83;;;;;;;18.19;72.28;98807.75;2313495;69;20224;-77
2021/10/20 11:54:12;;;;;;;1.76;1.40;;;;;;;18.11;71.99;98813.34;2311148;69;20253;-77
2021/10/20 11:57:16;;;;;;;3.71;2.08;;;;;;;18.01;72.14;98802.41;2312032;69;20936;-77
2021/10/20 12:00:20;;;;;;;1.96;1.65;;;;;;;17.90;72.57;98793.28;2308405;66;22209;-77
2021/10/20 12:03:39;;;;;;;5.15;1.59;;;;;;;17.79;73.04;98791.13;2311795;69;20185;-77
2021/10/20 12:06:42;;;;;;;1.61;1.51;;;;;;;17.76;73.58;98792.09;2311398;69;20696;-77
2021/10/20 12:09:46;;;;;;;4.49;1.71;;;;;;;17.72;73.85;98789.66;2311042;69;20160;-77
2021/10/20 12:12:49;;;;;;;2.61;1.66;;;;;;;17.74;74.41;98782.56;2311467;69;20236;-77
2021/10/20 12:15:52;;;;;;;2.22;1.77;;;;;;;17.72;74.11;98776.53;2309757;67;22187;-77
2021/10/20 12:18:56;;;;;;;5.22;2.16;;;;;;;17.66;74.12;98771.53;2311344;69;20233;-77
2021/10/20 12:22:04;;;;;;;4.71;2.11;;;;;;;17.60;74.36;98762.16;2310364;69;20156;-77
2021/10/20 12:25:08;;;;;;;3.67;2.09;;;;;;;17.55;74.93;98737.84;2312347;69;20174;-77
2021/10/20 12:28:12;;;;;;;2.05;1.69;;;;;;;17.48;75.87;98729.41;2317451;69;20182;-77
2021/10/20 12:31:18;;;;;;;2.04;1.67;;;;;;;17.42;76.72;98749.81;2310607;67;24333;-77
2021/10/20 12:34:20;;;;;;;3.28;1.70;;;;;;;17.33;77.67;98750.19;2311737;69;20173;-77
2021/10/20 12:37:33;;;;;;;2.74;1.91;;;;;;;17.22;78.49;98740.13;2312925;69;20168;-78
2021/10/20 12:40:36;;;;;;;3.15;1.95;;;;;;;17.20;79.00;98742.81;2311174;69;20178;-77
2021/10/20 12:43:40;;;;;;;3.35;1.88;;;;;;;17.20;79.34;98726.22;2311021;69;20156;-77
2021/10/20 12:47:04;;;;;;;4.34;1.96;;;;;;;17.21;79.79;98704.31;2310062;66;25192;-78
2021/10/20 12:50:07;;;;;;;4.39;1.64;;;;;;;17.25;79.87;98707.69;2312994;69;20167;-77
2021/10/20 12:53:16;;;;;;;1.95;1.65;;;;;;;17.22;79.72;98693.75;2312857;69;20892;-77
2021/10/20 12:56:23;;;;;;;1.80;1.70;;;;;;;17.26;79.71;98684.00;2312944;69;20176;-78
2021/10/20 12:59:29;;;;;;;2.11;1.89;;;;;;;17.35;79.99;98683.59;2312779;69;20213;-78
2021/10/20 13:02:31;;;;;;;1.94;1.80;;;;;;;17.41;79.96;98706.09;2309278;67;20220;-79
2021/10/20 13:05:34;;;;;;;3.06;1.61;;;;;;;17.43;79.89;98689.38;2311852;69;20300;-78
2021/10/20 13:08:38;;;;;;;4.04;1.81;;;;;;;17.49;79.38;98693.50;2307301;69;20156;-78
2021/10/20 13:11:42;;;;;;;2.16;1.80;;;;;;;17.47;78.60;98696.19;2312443;69;20200;-78
2021/10/20 13:14:44;;;;;;;3.01;1.96;;;;;;;17.45;78.58;98687.53;2316001;68;20180;-77
2021/10/20 13:17:47;;;;;;;4.57;1.95;;;;;;;17.47;78.78;98688.31;2310495;67;25563;-78
2021/10/20 13:20:50;;;;;;;4.85;1.69;;;;;;;17.52;78.76;98673.22;2313271;69;20144;-78
2021/10/20 13:23:54;;;;;;;3.35;1.92;;;;;;;17.62;78.27;98662.31;2313158;69;20518;-77
2021/10/20 13:26:56;;;;;;;3.24;2.11;;;;;;;17.71;78.16;98668.03;2312436;69;20263;-77
2021/10/20 13:30:01;;;;;;;3.06;1.70;;;;;;;17.70;77.37;98666.31;2312941;69;20156;-77
2021/10/20 13:33:05;;;;;;;4.03;1.83;;;;;;;17.68;77.08;98660.28;2306771;66;30243;-77
2021/10/20 13:36:12;;;;;;;4.72;2.20;;;;;;;17.69;77.09;98669.03;2312659;69;20648;-77
2021/10/20 13:39:15;;;;;;;2.03;1.80;;;;;;;17.72;77.21;98650.50;2312161;69;20180;-77
2021/10/20 13:42:18;;;;;;;3.58;1.76;;;;;;;17.69;77.05;98656.75;2312524;69;20176;-77
2021/10/20 13:45:21;;;;;;;5.06;1.67;;;;;;;17.74;77.02;98656.53;2309227;66;42198;-77
2021/10/20 13:48:23;;;;;;;4.59;1.69;;;;;;;17.78;76.96;98647.63;2312515;69;20553;-77
2021/10/20 13:51:26;;;;;;;2.10;1.85;;;;;;;17.81;76.64;98629.94;2314146;69;20144;-77
2021/10/20 13:54:29;;;;;;;1.80;1.59;;;;;;;17.85;76.35;98628.00;2311959;69;20173;-77
2021/10/20 13:57:32;;;;;;;3.60;1.80;;;;;;;17.89;75.91;98620.84;2312479;69;20237;-77
2021/10/20 14:00:35;;;;;;;2.28;1.79;;;;;;;17.93;75.61;98622.41;2308974;66;26197;-77
2021/10/20 14:03:38;;;;;;;7.39;1.81;;;;;;;17.91;75.49;98622.47;2311450;69;20595;-77
2021/10/20 14:06:41;;;;;;;3.21;1.81;;;;;;;17.90;75.00;98630.41;2311413;69;20172;-77
2021/10/20 14:09:44;;;;;;;3.36;1.73;;;;;;;17.89;75.34;98640.06;2311362;69;20197;-77
2021/10/20 14:12:47;;;;;;;2.35;1.90;;;;;;;17.86;75.45;98634.97;2311258;69;20156;-77
2021/10/20 14:15:54;;;;;;;2.04;1.79;;;;;;;17.81;76.21;98629.09;2311372;66;21948;-78
2021/10/20 14:18:57;;;;;;;3.79;1.88;;;;;;;17.76;77.14;98624.03;2312485;69;20164;-78
2021/10/20 14:22:00;;;;;;;4.00;1.83;;;;;;;17.72;77.20;98637.38;2312649;69;20176;-78
2021/10/20 14:25:04;;;;;;;2.78;1.94;;;;;;;17.66;77.93;98637.63;2311307;69;20159;-77
2021/10/20 14:28:06;;;;;;;5.22;2.11;;;;;;;17.57;78.47;98636.25;2312084;69;20176;-77
2021/10/20 14:32:07;;;;;;;4.15;2.00;;;;;;;17.53;78.88;98624.19;2312192;66;35206;-80
2021/10/20 14:35:23;;;;;;;4.04;1.89;;;;;;;17.48;79.16;98615.69;2311437;69;20262;-80
2021/10/20 14:38:26;;;;;;;2.90;1.79;;;;;;;17.46;79.57;98614.91;2320304;69;20166;-80
2021/10/20 14:41:43;;;;;;;3.34;1.91;;;;;;;17.44;79.27;98614.97;2324239;69;20124;-81
2021/10/20 14:44:48;;;;;;;2.04;1.85;;;;;;;17.44;79.46;98622.84;2322159;69;20152;-80
2021/10/20 14:47:52;;;;;;;4.53;2.15;;;;;;;17.43;80.12;98615.03;2326743;66;26234;-81
2021/10/20 14:51:03;;;;;;;2.04;1.75;;;;;;;17.43;80.51;98610.63;2315483;69;20183;-79
2021/10/20 14:54:07;;;;;;;2.81;1.67;;;;;;;17.42;81.36;98605.47;2313443;69;20176;-79